Terminal Aerodrome Forecast
Issued by NWS Twin Cities, MN

Home | Current Version | Previous Version | Graphics & Text | Print | Product List | Glossary On
Versions: 1 2 3 4 5 6 7 8 9 10 11 12 13 14 15 16 17 18 19
000
FTUS43 KMPX 032333
TAFSTC
TAF
KSTC 032333Z 0400/0424 34012KT P6SM SCT060 BKN120
     FM040600 35006KT P6SM SKC
     FM041500 02010KT P6SM FEW250=

USA.gov is the U.S. government's official web portal to all federal, state and local government web resources and services.